CheckWX is a tool to help pilots better visualize weather data.  It is not intended as a substitute for an official pre-flight weather briefing.

08:04:51 UTC

ENRO TAF
Røros Airport
Røros, Norway
TAF ENRO 190500Z 1906/1915 33012KT 9999 BKN030 BECMG 1910/1912 20008KT

Mar-19@
06:00 UTC

Mar-19 @ 06:00 UTC

Mar-19@
10:00 UTC

Mar-19 @ 10:00 UTC

TAF ENRO 190500Z 1906/1915 33012KT 9999 BKN030
Wind
  • 330° at 12 KTS
Cloud Levels
  • Broken at 3,000' AGL

Mar-19@
10:00 UTC

Mar-19 @ 10:00 UTC

Mar-19@
15:00 UTC

Mar-19 @ 15:00 UTC

BECMG 1910/1912 20008KT

Becoming

Becoming Conditions expected by Tue, Mar 19, 2019 @ 12:00 UTC

Wind
  • 200° at 8 KTS
Cloud Levels
  • Broken at 3,000' AGL